Time;durP1;ratioP1;P1;durP2;ratioP2;P2;SDS_P1;SDS_P2;PMS_P1;PMS_P2;Temp;Humidity;BMP_temperature;BMP_pressure;BME280_temperature;BME280_humidity;BME280_pressure;Samples;Min_cycle;Max_cycle;Signal;HPM_P1;HPM_P2
2023/04/27 00:00:08;;;;;;;11.57;4.35;;;11.20;42.60;;;;;;4964851;28;20058;-44
2023/04/27 00:02:37;;;;;;;7.70;3.58;;;11.20;42.90;;;;;;4965690;28;20061;-46
2023/04/27 00:05:05;;;;;;;10.05;3.85;;;11.20;43.10;;;;;;4967056;28;20396;-48
2023/04/27 00:07:32;;;;;;;4.80;3.40;;;11.10;43.10;;;;;;4965955;28;20466;-49
2023/04/27 00:09:59;;;;;;;7.20;3.67;;;11.20;43.20;;;;;;4967868;28;20042;-46
2023/04/27 00:12:27;;;;;;;8.48;4.38;;;11.10;43.30;;;;;;4966059;28;20057;-44
2023/04/27 00:14:54;;;;;;;8.05;4.00;;;11.10;43.40;;;;;;4965104;28;20054;-46
2023/04/27 00:17:21;;;;;;;10.65;4.57;;;11.10;43.60;;;;;;4969107;28;20046;-48
2023/04/27 00:19:51;;;;;;;7.10;3.60;;;11.10;43.70;;;;;;4967458;28;20402;-47
2023/04/27 00:22:18;;;;;;;8.52;4.15;;;11.10;43.70;;;;;;4967876;28;20057;-45
2023/04/27 00:24:45;;;;;;;9.85;4.30;;;11.10;43.50;;;;;;4963865;28;20050;-47
2023/04/27 00:27:12;;;;;;;9.65;4.35;;;11.00;43.50;;;;;;4965777;28;20057;-49
2023/04/27 00:29:41;;;;;;;7.55;4.40;;;11.00;43.90;;;;;;4964326;28;20055;-49
2023/04/27 00:32:09;;;;;;;11.02;4.60;;;11.00;43.40;;;;;;4965778;28;20055;-47
2023/04/27 00:34:36;;;;;;;7.75;3.80;;;11.00;43.40;;;;;;4967519;28;20061;-44
2023/04/27 00:37:05;;;;;;;8.20;4.03;;;11.00;43.40;;;;;;4966400;28;20066;-45
2023/04/27 00:39:35;;;;;;;6.18;4.03;;;10.90;43.50;;;;;;4966058;28;20050;-46
2023/04/27 00:42:02;;;;;;;8.88;3.80;;;10.90;43.60;;;;;;4966651;28;20046;-47
2023/04/27 00:44:29;;;;;;;10.75;4.00;;;10.90;43.50;;;;;;4964560;28;20055;-47
2023/04/27 00:46:58;;;;;;;7.68;4.18;;;10.90;43.50;;;;;;4966023;28;20403;-51
2023/04/27 00:49:27;;;;;;;8.13;3.92;;;10.80;43.50;;;;;;4966911;28;20522;-48
2023/04/27 00:51:55;;;;;;;9.77;3.90;;;10.80;43.40;;;;;;4967535;28;20511;-46
2023/04/27 00:54:24;;;;;;;6.68;3.95;;;10.80;43.50;;;;;;4965794;28;20050;-43
2023/04/27 00:56:52;;;;;;;11.63;5.38;;;10.80;43.80;;;;;;4966257;28;20600;-46
2023/04/27 00:59:20;;;;;;;10.70;4.63;;;10.80;44.00;;;;;;4965304;28;20494;-47
2023/04/27 01:01:48;;;;;;;9.40;4.18;;;10.80;44.10;;;;;;4966132;28;20069;-44
2023/04/27 01:04:16;;;;;;;7.45;3.47;;;10.80;44.00;;;;;;5013764;23;20057;-42
2023/04/27 01:06:44;;;;;;;6.38;4.05;;;10.80;44.00;;;;;;5000682;28;20057;-43
2023/04/27 01:09:12;;;;;;;9.10;4.50;;;10.70;44.20;;;;;;5001507;28;20046;-42
2023/04/27 01:11:40;;;;;;;13.57;5.57;;;10.70;44.40;;;;;;5000329;28;20068;-44
2023/04/27 01:14:08;;;;;;;8.43;4.05;;;10.70;44.70;;;;;;4997120;28;20058;-43
2023/04/27 01:16:36;;;;;;;10.50;4.13;;;10.70;44.70;;;;;;5001372;28;20062;-44
2023/04/27 01:19:03;;;;;;;7.25;4.10;;;10.70;44.80;;;;;;5002566;28;20600;-42
2023/04/27 01:21:31;;;;;;;8.95;4.15;;;10.60;44.70;;;;;;5001766;28;20087;-44
2023/04/27 01:23:59;;;;;;;13.00;4.97;;;10.70;44.80;;;;;;5000155;28;20050;-44
2023/04/27 01:26:28;;;;;;;7.75;4.15;;;10.60;44.80;;;;;;4999953;28;20066;-42
2023/04/27 01:28:55;;;;;;;9.98;4.32;;;10.60;44.80;;;;;;5001317;28;20509;-44
2023/04/27 01:31:22;;;;;;;7.25;4.07;;;10.60;45.00;;;;;;5000257;28;20053;-42
2023/04/27 01:33:50;;;;;;;8.43;3.95;;;10.60;45.20;;;;;;4998359;28;20062;-45
2023/04/27 01:36:17;;;;;;;9.10;4.65;;;10.60;45.20;;;;;;5002125;28;20061;-44
2023/04/27 01:38:44;;;;;;;8.35;4.47;;;10.60;45.30;;;;;;4998615;28;20054;-44
2023/04/27 01:41:13;;;;;;;8.65;4.05;;;10.60;45.40;;;;;;4998230;28;20045;-43
2023/04/27 01:43:41;;;;;;;8.32;4.50;;;10.50;45.50;;;;;;5001828;28;20493;-43
2023/04/27 01:46:10;;;;;;;11.95;4.68;;;10.50;45.50;;;;;;4996885;28;20053;-42
2023/04/27 01:48:37;;;;;;;8.23;4.00;;;10.50;45.60;;;;;;5001334;28;20050;-44
2023/04/27 01:51:05;;;;;;;8.63;4.07;;;10.50;45.50;;;;;;5002137;28;20497;-43
2023/04/27 01:53:33;;;;;;;6.07;3.63;;;10.50;45.40;;;;;;5000939;28;20053;-43
2023/04/27 01:56:00;;;;;;;11.23;4.50;;;10.50;45.40;;;;;;4999479;28;20049;-44
2023/04/27 01:58:29;;;;;;;8.27;4.28;;;10.50;45.50;;;;;;4997398;28;20402;-42
2023/04/27 02:00:56;;;;;;;8.05;4.97;;;10.50;45.50;;;;;;4997167;28;20077;-43
2023/04/27 02:03:23;;;;;;;10.35;4.57;;;10.40;45.60;;;;;;5001524;28;20510;-43
2023/04/27 02:05:50;;;;;;;8.77;4.63;;;10.40;45.70;;;;;;4999356;28;20054;-43
2023/04/27 02:08:17;;;;;;;6.82;4.38;;;10.40;45.80;;;;;;5001731;28;20057;-44
2023/04/27 02:10:45;;;;;;;10.25;4.63;;;10.40;45.80;;;;;;5000002;28;20061;-43
2023/04/27 02:13:12;;;;;;;10.63;4.85;;;10.40;45.80;;;;;;4991953;28;20041;-46
2023/04/27 02:15:40;;;;;;;8.73;4.40;;;10.40;45.80;;;;;;4996319;28;20053;-44
2023/04/27 02:18:08;;;;;;;8.32;4.32;;;10.40;45.80;;;;;;5000420;28;20054;-44
2023/04/27 02:20:35;;;;;;;9.63;4.38;;;10.40;45.80;;;;;;4998700;28;20061;-43
2023/04/27 02:23:02;;;;;;;12.32;4.90;;;10.40;46.00;;;;;;4998924;28;20050;-44
2023/04/27 02:25:30;;;;;;;9.50;5.45;;;10.40;46.20;;;;;;4999639;28;20060;-42
2023/04/27 02:27:57;;;;;;;9.95;5.57;;;10.40;46.30;;;;;;4994972;28;20061;-45
2023/04/27 02:30:25;;;;;;;11.20;5.93;;;10.40;46.30;;;;;;4997946;28;20054;-43
2023/04/27 02:32:53;;;;;;;11.98;5.97;;;10.40;46.30;;;;;;4996842;28;20062;-44
2023/04/27 02:35:21;;;;;;;11.13;5.55;;;10.30;46.40;;;;;;5001892;28;20057;-43
2023/04/27 02:37:48;;;;;;;8.63;4.95;;;10.30;46.40;;;;;;5001510;28;20054;-44
2023/04/27 02:40:15;;;;;;;6.40;4.07;;;10.40;46.50;;;;;;4998259;28;20046;-43
2023/04/27 02:42:42;;;;;;;4.82;3.65;;;10.30;46.60;;;;;;4999528;28;20062;-43
2023/04/27 02:45:10;;;;;;;8.48;4.10;;;10.30;46.60;;;;;;4999994;28;20050;-44
2023/04/27 02:47:37;;;;;;;11.05;5.80;;;10.30;46.80;;;;;;4998489;28;21523;-44
2023/04/27 02:50:07;;;;;;;8.32;4.63;;;10.30;46.90;;;;;;4999687;28;20065;-42
2023/04/27 02:52:34;;;;;;;8.00;4.88;;;10.30;47.00;;;;;;4998770;28;20405;-43
2023/04/27 02:55:02;;;;;;;10.20;5.28;;;10.30;46.90;;;;;;4999671;28;20054;-43
2023/04/27 02:57:29;;;;;;;7.63;4.50;;;10.20;46.80;;;;;;4998778;28;20049;-43
2023/04/27 02:59:56;;;;;;;13.68;5.22;;;10.20;46.90;;;;;;4998557;28;20485;-39
2023/04/27 03:02:24;;;;;;;7.50;4.55;;;10.20;47.00;;;;;;5000135;28;20054;-37
2023/04/27 03:04:53;;;;;;;11.82;4.93;;;10.20;47.00;;;;;;4993554;28;20070;-40
2023/04/27 03:07:22;;;;;;;10.30;4.40;;;10.20;47.00;;;;;;4980438;28;20057;-40
2023/04/27 03:09:50;;;;;;;7.40;4.25;;;10.20;46.90;;;;;;4978473;28;20047;-38
2023/04/27 03:12:17;;;;;;;11.45;4.93;;;10.20;46.80;;;;;;4981341;28;20051;-38
2023/04/27 03:14:44;;;;;;;7.32;4.22;;;10.10;46.70;;;;;;4978311;28;20482;-42
2023/04/27 03:17:11;;;;;;;8.68;4.78;;;10.10;46.70;;;;;;4978101;28;20058;-43
2023/04/27 03:19:40;;;;;;;9.40;4.68;;;10.10;46.80;;;;;;4979041;28;20421;-38
2023/04/27 03:22:07;;;;;;;8.13;4.50;;;10.10;47.00;;;;;;4978815;28;20054;-38
2023/04/27 03:24:35;;;;;;;7.28;4.75;;;10.10;47.10;;;;;;4981841;28;20520;-38
2023/04/27 03:27:03;;;;;;;8.60;4.60;;;10.10;47.20;;;;;;4981578;28;20698;-38
2023/04/27 03:29:30;;;;;;;12.00;4.90;;;10.10;47.20;;;;;;4979831;28;20490;-42
2023/04/27 03:31:57;;;;;;;9.27;4.60;;;10.10;47.20;;;;;;4972159;28;20050;-43
2023/04/27 03:34:25;;;;;;;10.50;4.68;;;10.10;47.20;;;;;;4979379;28;20512;-39
2023/04/27 03:36:52;;;;;;;10.38;4.68;;;10.10;47.20;;;;;;4983018;28;20054;-41
2023/04/27 03:39:19;;;;;;;11.60;5.70;;;10.10;47.30;;;;;;4985644;28;20488;-38
2023/04/27 03:41:48;;;;;;;10.50;4.65;;;10.10;47.40;;;;;;4984650;28;20054;-40
2023/04/27 03:44:15;;;;;;;9.88;4.63;;;10.10;47.30;;;;;;4982059;28;20058;-38
2023/04/27 03:46:42;;;;;;;8.13;4.57;;;10.10;47.20;;;;;;4982196;28;20066;-39
2023/04/27 03:49:10;;;;;;;11.48;4.78;;;10.10;47.30;;;;;;4983932;28;20054;-39
2023/04/27 03:51:41;;;;;;;9.35;4.40;;;10.10;47.50;;;;;;4985292;28;20050;-38
2023/04/27 03:54:09;;;;;;;9.38;5.00;;;10.00;47.40;;;;;;4985437;28;20525;-38
2023/04/27 03:56:39;;;;;;;9.27;4.68;;;10.00;47.40;;;;;;4983445;28;20054;-37
2023/04/27 03:59:08;;;;;;;11.20;5.28;;;10.00;47.40;;;;;;4982693;28;20065;-43
2023/04/27 04:01:36;;;;;;;9.07;5.38;;;10.00;47.30;;;;;;4983905;28;20077;-44
2023/04/27 04:04:03;;;;;;;8.00;5.40;;;10.00;47.20;;;;;;4984714;28;20061;-43
2023/04/27 04:06:30;;;;;;;10.23;5.82;;;10.00;47.30;;;;;;4981629;28;20065;-45
2023/04/27 04:08:58;;;;;;;16.00;6.80;;;10.00;47.30;;;;;;4983192;28;20415;-43
2023/04/27 04:11:26;;;;;;;15.63;7.60;;;10.00;47.40;;;;;;4984625;28;20050;-44
2023/04/27 04:13:53;;;;;;;12.60;6.40;;;10.00;47.40;;;;;;4978714;28;20062;-42
2023/04/27 04:16:22;;;;;;;14.48;5.85;;;10.00;47.40;;;;;;4978408;28;20390;-43
2023/04/27 04:18:49;;;;;;;8.45;5.28;;;10.00;47.40;;;;;;4979550;28;20411;-43
2023/04/27 04:21:16;;;;;;;10.98;4.95;;;10.00;47.40;;;;;;4984083;28;20053;-42
2023/04/27 04:23:44;;;;;;;11.73;5.30;;;10.00;47.50;;;;;;4981132;28;20054;-43
2023/04/27 04:26:13;;;;;;;9.55;5.68;;;10.00;47.50;;;;;;4980503;28;20054;-43
2023/04/27 04:28:41;;;;;;;10.98;5.18;;;10.00;47.50;;;;;;4980728;28;20065;-43
2023/04/27 04:31:08;;;;;;;10.25;5.65;;;10.00;47.80;;;;;;4979892;28;20402;-42
2023/04/27 04:33:37;;;;;;;10.05;5.45;;;10.00;48.10;;;;;;4981704;28;20058;-44
2023/04/27 04:36:04;;;;;;;11.82;5.97;;;9.90;47.70;;;;;;4984025;28;20498;-47
2023/04/27 04:38:32;;;;;;;13.70;7.18;;;9.90;47.70;;;;;;4981622;28;20062;-43
2023/04/27 04:40:59;;;;;;;22.60;10.80;;;9.90;47.70;;;;;;4982357;28;20414;-44
2023/04/27 04:43:27;;;;;;;14.82;8.55;;;9.90;47.80;;;;;;4978597;28;20056;-43
2023/04/27 04:45:54;;;;;;;15.57;6.50;;;9.90;47.90;;;;;;4981729;28;20498;-43
2023/04/27 04:48:22;;;;;;;10.75;5.20;;;9.90;47.90;;;;;;4984198;28;20062;-43
2023/04/27 04:50:51;;;;;;;10.02;5.68;;;9.90;47.90;;;;;;4984474;28;20057;-43
2023/04/27 04:53:18;;;;;;;8.90;5.15;;;9.90;48.00;;;;;;4980152;28;20501;-43
2023/04/27 04:55:46;;;;;;;11.57;5.60;;;9.90;48.00;;;;;;4983985;28;20058;-42
2023/04/27 04:58:13;;;;;;;10.05;5.40;;;9.90;48.10;;;;;;4979799;28;20058;-43
2023/04/27 05:00:40;;;;;;;15.60;6.07;;;9.90;48.00;;;;;;4983613;28;20505;-43
2023/04/27 05:03:07;;;;;;;9.77;5.70;;;9.90;48.00;;;;;;4982307;28;20070;-43
2023/04/27 05:05:38;;;;;;;17.63;6.20;;;9.90;48.00;;;;;;4983442;28;20490;-43
2023/04/27 05:08:07;;;;;;;9.50;5.70;;;9.90;48.00;;;;;;4983470;28;20054;-42
2023/04/27 05:10:34;;;;;;;12.95;5.18;;;9.90;48.20;;;;;;4982096;28;20164;-43
2023/04/27 05:13:01;;;;;;;8.95;5.53;;;9.90;48.20;;;;;;4984509;28;21395;-43
2023/04/27 05:15:28;;;;;;;15.77;5.88;;;9.90;48.20;;;;;;4982819;28;20065;-44
2023/04/27 05:17:55;;;;;;;13.68;6.72;;;9.90;48.20;;;;;;4982827;28;20062;-42
2023/04/27 05:20:23;;;;;;;10.52;5.22;;;9.90;48.20;;;;;;4984949;28;20058;-43
2023/04/27 05:22:51;;;;;;;8.77;5.35;;;9.90;48.40;;;;;;4984714;28;20066;-43
2023/04/27 05:25:20;;;;;;;13.68;6.88;;;9.90;48.40;;;;;;4983714;28;20050;-42
2023/04/27 05:27:47;;;;;;;11.00;5.63;;;10.00;48.40;;;;;;4980950;28;20057;-44
2023/04/27 05:30:16;;;;;;;10.73;6.53;;;10.00;48.40;;;;;;4979921;28;20058;-43
2023/04/27 05:32:43;;;;;;;9.70;5.70;;;10.00;48.50;;;;;;4980766;28;20050;-43
2023/04/27 05:35:11;;;;;;;10.63;5.53;;;10.00;48.60;;;;;;4982210;28;20061;-45
2023/04/27 05:37:38;;;;;;;10.13;6.35;;;10.00;48.40;;;;;;4982022;28;20613;-43
2023/04/27 05:40:08;;;;;;;10.27;6.30;;;9.90;48.40;;;;;;4982133;28;20498;-43
2023/04/27 05:42:36;;;;;;;13.88;7.20;;;10.00;48.30;;;;;;4981309;28;20054;-43
2023/04/27 05:45:05;;;;;;;16.02;6.68;;;9.90;47.90;;;;;;4981930;28;20062;-45
2023/04/27 05:47:32;;;;;;;14.50;7.00;;;9.90;47.60;;;;;;4984145;28;20414;-43
2023/04/27 05:49:59;;;;;;;15.68;7.43;;;9.90;47.50;;;;;;4980921;28;20054;-44
2023/04/27 05:52:29;;;;;;;13.27;6.95;;;9.90;47.40;;;;;;4984200;28;20058;-45
2023/04/27 05:54:58;;;;;;;13.32;6.05;;;9.90;47.30;;;;;;4983299;28;20050;-45
2023/04/27 05:57:25;;;;;;;11.70;5.78;;;9.90;47.90;;;;;;4981383;28;20058;-43
2023/04/27 05:59:54;;;;;;;9.38;5.95;;;9.90;47.40;;;;;;4982125;28;20058;-44
2023/04/27 06:02:22;;;;;;;15.45;6.22;;;9.90;47.50;;;;;;4978937;28;20055;-45
2023/04/27 06:04:50;;;;;;;12.75;6.72;;;9.90;47.60;;;;;;4979999;28;20106;-45
2023/04/27 06:07:17;;;;;;;13.13;7.57;;;9.90;47.70;;;;;;4981685;28;20076;-42
2023/04/27 06:09:44;;;;;;;11.98;5.78;;;9.90;48.60;;;;;;4982218;28;20054;-43
2023/04/27 06:12:12;;;;;;;15.77;7.07;;;9.90;48.50;;;;;;4980648;28;20394;-38
2023/04/27 06:14:42;;;;;;;17.45;7.72;;;9.90;48.70;;;;;;4979055;28;20050;-41
2023/04/27 06:17:11;;;;;;;12.13;5.93;;;10.00;48.90;;;;;;4982208;28;20414;-41
2023/04/27 06:19:44;;;;;;;14.85;5.93;;;10.00;48.80;;;;;;4982223;28;20069;-45
2023/04/27 06:22:12;;;;;;;11.82;6.07;;;10.00;48.90;;;;;;4981786;28;20406;-37
2023/04/27 06:24:39;;;;;;;10.43;5.75;;;10.10;49.00;;;;;;4982237;28;20073;-38
2023/04/27 06:27:06;;;;;;;10.10;6.18;;;10.10;49.00;;;;;;4983207;28;20425;-40
2023/04/27 06:29:33;;;;;;;9.95;5.75;;;10.10;49.00;;;;;;4981381;28;20509;-40
2023/04/27 06:32:00;;;;;;;11.82;5.95;;;10.20;49.10;;;;;;4979612;28;20051;-40
2023/04/27 06:34:29;;;;;;;12.18;6.68;;;10.30;49.00;;;;;;4982662;28;20065;-39
2023/04/27 06:36:56;;;;;;;12.05;6.45;;;10.30;48.90;;;;;;4983563;28;20050;-41
2023/04/27 06:39:23;;;;;;;12.40;5.90;;;10.40;48.80;;;;;;4979892;28;20058;-39
2023/04/27 06:41:51;;;;;;;12.60;5.88;;;10.40;48.70;;;;;;4980790;28;20221;-40
2023/04/27 06:44:18;;;;;;;10.23;6.35;;;10.50;48.70;;;;;;4977610;28;20050;-37
2023/04/27 06:46:45;;;;;;;13.45;6.38;;;10.60;48.70;;;;;;4982330;28;20069;-39
2023/04/27 06:49:12;;;;;;;13.25;5.78;;;10.70;48.60;;;;;;4982538;28;20054;-37
2023/04/27 06:51:41;;;;;;;13.85;6.32;;;10.70;48.60;;;;;;4982796;28;20055;-41
2023/04/27 06:54:08;;;;;;;11.70;6.43;;;10.80;48.60;;;;;;4981016;28;20076;-36
2023/04/27 06:56:36;;;;;;;11.10;6.38;;;10.90;48.50;;;;;;4982105;28;20058;-40
2023/04/27 06:59:03;;;;;;;10.93;6.85;;;10.90;48.30;;;;;;4979984;28;20518;-40
2023/04/27 07:01:30;;;;;;;18.02;7.22;;;11.00;48.20;;;;;;4981206;28;20054;-39
2023/04/27 07:03:57;;;;;;;13.07;6.72;;;11.10;48.10;;;;;;4980797;28;20058;-45
2023/04/27 07:06:27;;;;;;;12.52;6.35;;;11.10;47.90;;;;;;4982192;28;20524;-40
2023/04/27 07:08:56;;;;;;;11.10;6.82;;;11.20;47.80;;;;;;4982563;28;20066;-40
2023/04/27 07:11:24;;;;;;;9.63;6.22;;;11.30;47.60;;;;;;4985467;28;20061;-41
2023/04/27 07:13:51;;;;;;;14.07;6.72;;;11.30;47.50;;;;;;4986188;28;20065;-39
2023/04/27 07:16:19;;;;;;;12.73;6.82;;;11.40;47.50;;;;;;4985096;28;20047;-41
2023/04/27 07:18:46;;;;;;;8.98;5.60;;;11.40;47.40;;;;;;4984709;28;20054;-40
2023/04/27 07:21:14;;;;;;;15.00;7.45;;;11.50;47.30;;;;;;4985989;28;20057;-39
2023/04/27 07:23:41;;;;;;;12.10;6.57;;;11.50;47.10;;;;;;4984928;28;20061;-41
2023/04/27 07:26:10;;;;;;;11.52;5.95;;;11.60;47.10;;;;;;4984442;28;20517;-39
2023/04/27 07:28:38;;;;;;;9.45;5.95;;;11.70;47.00;;;;;;4985267;28;20054;-41
2023/04/27 07:31:06;;;;;;;11.55;6.05;;;11.70;46.90;;;;;;4984578;28;20073;-40
2023/04/27 07:33:33;;;;;;;13.23;7.00;;;11.80;46.90;;;;;;4983653;28;20061;-37
2023/04/27 07:36:02;;;;;;;11.95;6.32;;;11.80;46.80;;;;;;4984720;28;20544;-37
2023/04/27 07:38:30;;;;;;;12.90;6.82;;;11.90;46.80;;;;;;4984640;28;20398;-39
2023/04/27 07:40:58;;;;;;;18.50;7.35;;;11.90;46.60;;;;;;4983117;28;20061;-37
2023/04/27 07:43:27;;;;;;;12.35;6.90;;;12.00;45.30;;;;;;4986690;28;20064;-37
2023/04/27 07:45:54;;;;;;;13.45;7.15;;;12.00;45.50;;;;;;4984392;28;20057;-39
2023/04/27 07:48:21;;;;;;;12.48;6.90;;;12.10;45.70;;;;;;4982855;28;20054;-42
2023/04/27 07:50:50;;;;;;;13.98;6.70;;;12.10;45.80;;;;;;4984824;28;20054;-38
2023/04/27 07:53:17;;;;;;;9.60;6.20;;;12.20;45.90;;;;;;4982960;28;20050;-40
2023/04/27 07:55:45;;;;;;;14.23;7.55;;;12.20;45.70;;;;;;4985425;28;20050;-39
2023/04/27 07:58:12;;;;;;;15.40;7.53;;;12.20;45.50;;;;;;4985823;28;20054;-45
2023/04/27 08:00:41;;;;;;;11.43;7.28;;;12.20;45.30;;;;;;4984066;28;20057;-39
2023/04/27 08:03:08;;;;;;;17.20;7.70;;;12.30;45.30;;;;;;4982708;28;20054;-39
2023/04/27 08:05:35;;;;;;;11.85;6.68;;;12.40;45.40;;;;;;4985046;28;20058;-37
2023/04/27 08:08:02;;;;;;;11.63;6.82;;;12.40;45.50;;;;;;4983713;28;20058;-38
2023/04/27 08:10:30;;;;;;;14.32;7.85;;;12.40;45.30;;;;;;4984494;28;20050;-39
2023/04/27 08:12:57;;;;;;;12.10;7.10;;;12.40;44.30;;;;;;4983170;28;20046;-39
2023/04/27 08:15:24;;;;;;;12.77;6.22;;;12.50;44.40;;;;;;4984667;28;20050;-38
2023/04/27 08:17:53;;;;;;;11.68;6.43;;;12.50;44.80;;;;;;4985211;28;20054;-40
2023/04/27 08:20:20;;;;;;;15.23;7.60;;;12.60;44.90;;;;;;4985345;28;20058;-39
2023/04/27 08:22:47;;;;;;;16.02;6.93;;;12.60;45.00;;;;;;4979378;28;20051;-40
2023/04/27 08:25:15;;;;;;;11.63;6.75;;;12.60;45.00;;;;;;4984627;28;20410;-40
2023/04/27 08:27:42;;;;;;;13.23;5.88;;;12.70;44.50;;;;;;4983520;28;20058;-38
2023/04/27 08:30:10;;;;;;;11.15;5.93;;;12.70;44.60;;;;;;4981296;28;20105;-38
2023/04/27 08:32:37;;;;;;;10.43;5.72;;;12.80;44.60;;;;;;4982748;28;20069;-39
2023/04/27 08:35:07;;;;;;;10.60;6.18;;;12.90;44.60;;;;;;4985315;28;20502;-41
2023/04/27 08:37:34;;;;;;;12.88;6.20;;;12.90;44.50;;;;;;4979307;28;20440;-38
2023/04/27 08:40:04;;;;;;;12.35;6.30;;;13.00;44.50;;;;;;4984534;28;20050;-39
2023/04/27 08:42:32;;;;;;;12.70;5.70;;;13.10;44.40;;;;;;4984916;28;20529;-38
2023/04/27 08:44:59;;;;;;;12.55;5.90;;;13.10;44.30;;;;;;4983849;28;20061;-38
2023/04/27 08:47:27;;;;;;;14.00;7.20;;;13.20;44.30;;;;;;4982050;28;20521;-41
2023/04/27 08:49:54;;;;;;;12.63;7.13;;;13.20;43.70;;;;;;4983624;28;20437;-39
2023/04/27 08:52:22;;;;;;;11.77;6.00;;;13.20;42.90;;;;;;4983959;28;20046;-43
2023/04/27 08:54:50;;;;;;;12.82;5.97;;;13.30;43.20;;;;;;4982734;28;20080;-37
2023/04/27 08:57:17;;;;;;;12.88;6.75;;;13.30;43.40;;;;;;4984092;28;20054;-39
2023/04/27 08:59:44;;;;;;;10.48;6.30;;;13.30;43.50;;;;;;4981049;28;20065;-40
2023/04/27 09:02:21;;;;;;;10.48;6.20;;;13.40;42.60;;;;;;4981786;28;20054;-40
2023/04/27 09:04:49;;;;;;;9.85;5.65;;;13.40;42.90;;;;;;4983159;28;20063;-40
2023/04/27 09:07:18;;;;;;;12.95;6.70;;;13.40;42.90;;;;;;4983973;28;20061;-40
2023/04/27 09:09:47;;;;;;;11.15;6.72;;;13.50;43.10;;;;;;4983841;28;20490;-40
2023/04/27 09:12:16;;;;;;;16.17;8.07;;;13.50;43.10;;;;;;4983793;28;20057;-38
2023/04/27 09:14:43;;;;;;;16.88;7.70;;;13.60;42.00;;;;;;4983504;28;20058;-38
2023/04/27 09:17:11;;;;;;;15.00;7.18;;;13.60;41.20;;;;;;4984541;28;20069;-42
2023/04/27 09:19:38;;;;;;;17.73;6.97;;;13.60;41.70;;;;;;4983313;28;20046;-42
2023/04/27 09:22:07;;;;;;;10.10;6.38;;;13.70;41.90;;;;;;4979950;28;20057;-42
2023/04/27 09:24:34;;;;;;;15.77;7.22;;;13.70;42.10;;;;;;4980497;28;20065;-40
2023/04/27 09:27:03;;;;;;;14.40;8.13;;;13.70;42.40;;;;;;4982183;28;20065;-39
2023/04/27 09:39:42;;;;;;;10.68;6.28;;;13.90;42.10;;;;;;5002525;28;20036;-43
2023/04/27 09:42:11;;;;;;;13.55;6.75;;;14.00;41.90;;;;;;4999980;28;20053;-38
2023/04/27 09:44:39;;;;;;;14.45;7.78;;;14.00;41.80;;;;;;5001785;28;20405;-37
2023/04/27 09:47:07;;;;;;;23.38;9.27;;;14.10;41.50;;;;;;4998967;28;20878;-38
2023/04/27 09:49:35;;;;;;;16.40;8.65;;;14.10;40.40;;;;;;5003591;28;20054;-39
2023/04/27 09:52:03;;;;;;;16.85;7.85;;;14.20;40.10;;;;;;4997030;28;20899;-41
2023/04/27 09:54:33;;;;;;;12.30;7.18;;;14.10;39.40;;;;;;5002765;28;20062;-37
2023/04/27 09:57:10;;;;;;;12.23;6.68;;;14.10;39.40;;;;;;4997315;28;20057;-38
2023/04/27 09:59:56;;;;;;;13.80;7.40;;;14.20;40.40;;;;;;4997241;28;20069;-40
2023/04/27 10:02:24;;;;;;;9.80;5.82;;;14.20;41.00;;;;;;4994633;28;20056;-39
2023/04/27 10:05:22;;;;;;;13.25;6.68;;;14.20;41.40;;;;;;5001852;28;20065;-40
2023/04/27 10:07:51;;;;;;;17.08;8.27;;;14.30;41.10;;;;;;5000826;28;20058;-37
2023/04/27 10:10:19;;;;;;;14.98;7.47;;;14.30;41.40;;;;;;5001704;28;20057;-39
2023/04/27 10:12:56;;;;;;;11.95;7.03;;;14.40;41.10;;;;;;5001885;28;20536;-37
2023/04/27 10:15:28;;;;;;;14.07;7.80;;;14.40;40.80;;;;;;4998079;28;20061;-38
2023/04/27 10:17:57;;;;;;;12.90;6.65;;;14.50;40.40;;;;;;5002817;28;20065;-37
2023/04/27 10:20:32;;;;;;;11.88;7.00;;;14.50;41.00;;;;;;5001091;28;20066;-39
2023/04/27 10:23:00;;;;;;;10.95;6.30;;;14.60;41.30;;;;;;5002656;28;20069;-40
2023/04/27 10:25:29;;;;;;;14.10;6.00;;;14.60;41.40;;;;;;5001642;28;20524;-37
2023/04/27 10:27:59;;;;;;;11.02;6.72;;;14.70;41.50;;;;;;4999345;28;20084;-38
2023/04/27 10:30:32;;;;;;;12.18;6.53;;;14.80;41.40;;;;;;4996697;28;20050;-42
2023/04/27 10:33:05;;;;;;;12.27;6.53;;;14.90;41.50;;;;;;4996741;28;20595;-41
2023/04/27 10:35:34;;;;;;;12.80;6.80;;;14.90;41.50;;;;;;4999358;28;20069;-37
2023/04/27 10:38:08;;;;;;;14.43;6.13;;;15.00;41.20;;;;;;5002432;28;20503;-39
2023/04/27 10:40:36;;;;;;;17.50;6.28;;;15.10;41.10;;;;;;5002597;28;20058;-38
2023/04/27 10:43:10;;;;;;;20.70;8.32;;;15.10;40.70;;;;;;4998368;28;20064;-42
2023/04/27 10:45:39;;;;;;;14.68;6.88;;;15.20;39.30;;;;;;4992998;28;20061;-38
2023/04/27 10:48:07;;;;;;;13.40;6.68;;;15.20;40.10;;;;;;4999559;28;20390;-40
2023/04/27 10:50:35;;;;;;;13.93;6.93;;;15.30;40.70;;;;;;5002068;28;20505;-39
2023/04/27 10:53:05;;;;;;;9.23;6.00;;;15.30;39.90;;;;;;5002628;28;20062;-40
2023/04/27 10:55:33;;;;;;;10.88;6.70;;;15.30;40.10;;;;;;4998861;28;20068;-38
2023/04/27 10:58:02;;;;;;;9.95;6.45;;;15.30;39.80;;;;;;5001811;28;20077;-37
2023/04/27 11:00:31;;;;;;;13.00;6.85;;;15.30;39.70;;;;;;5000565;28;20417;-39
2023/04/27 11:03:11;;;;;;;17.80;7.20;;;15.40;38.80;;;;;;4999523;28;20050;-42
2023/04/27 11:05:38;;;;;;;14.77;6.68;;;15.40;38.10;;;;;;5000249;28;20065;-41
2023/04/27 11:08:07;;;;;;;9.95;5.28;;;15.40;39.20;;;;;;5000947;28;20513;-43
2023/04/27 11:10:35;;;;;;;9.77;5.07;;;15.40;39.70;;;;;;4998790;28;20422;-40
2023/04/27 11:13:11;;;;;;;11.80;5.55;;;15.40;39.90;;;;;;5001801;28;20065;-39
2023/04/27 11:15:46;;;;;;;9.82;5.22;;;15.50;39.60;;;;;;4996871;28;20062;-37
2023/04/27 11:18:15;;;;;;;12.55;5.80;;;15.50;39.60;;;;;;5000848;28;20049;-38
2023/04/27 11:20:43;;;;;;;11.43;4.75;;;15.60;39.70;;;;;;5001171;28;20050;-38
2023/04/27 11:23:10;;;;;;;12.95;5.07;;;15.60;39.90;;;;;;5002394;28;20054;-38
2023/04/27 11:25:38;;;;;;;17.08;6.05;;;15.60;39.80;;;;;;4999249;28;20058;-40
2023/04/27 11:28:05;;;;;;;7.57;4.78;;;15.70;39.90;;;;;;5001510;28;20058;-37
2023/04/27 11:30:33;;;;;;;15.52;6.50;;;15.70;39.80;;;;;;4998322;28;20090;-38
2023/04/27 11:33:09;;;;;;;11.02;6.18;;;15.80;39.60;;;;;;5000576;28;20065;-37
2023/04/27 11:35:38;;;;;;;20.25;7.35;;;15.80;38.30;;;;;;5002117;28;20061;-40
2023/04/27 11:38:05;;;;;;;9.95;5.00;;;15.80;37.60;;;;;;4999571;28;20522;-38
2023/04/27 11:40:34;;;;;;;10.27;5.15;;;15.80;38.30;;;;;;5001545;28;20053;-38
2023/04/27 11:43:03;;;;;;;9.93;5.72;;;15.90;39.10;;;;;;5001646;28;20050;-40
2023/04/27 11:45:30;;;;;;;12.93;5.90;;;15.90;40.20;;;;;;5000134;28;20065;-38
2023/04/27 11:47:58;;;;;;;12.95;4.97;;;16.00;39.70;;;;;;4998808;28;20057;-39
2023/04/27 11:50:26;;;;;;;7.90;5.10;;;16.10;39.80;;;;;;5000932;28;20064;-43
2023/04/27 11:52:55;;;;;;;11.07;4.93;;;16.10;39.60;;;;;;5001646;28;20054;-38
2023/04/27 11:55:23;;;;;;;12.77;6.20;;;16.10;39.50;;;;;;5003674;28;20500;-38
2023/04/27 11:57:57;;;;;;;15.15;6.00;;;16.10;38.30;;;;;;5004248;28;20057;-41
2023/04/27 12:00:24;;;;;;;10.20;5.30;;;16.20;38.10;;;;;;5002036;28;20521;-39
2023/04/27 12:02:52;;;;;;;11.40;5.47;;;16.20;38.90;;;;;;5005261;28;20050;-38
2023/04/27 12:05:19;;;;;;;10.43;4.80;;;16.20;39.20;;;;;;5004832;28;20517;-39
2023/04/27 12:07:47;;;;;;;9.15;5.05;;;16.30;39.50;;;;;;5005438;28;20530;-39
2023/04/27 12:10:16;;;;;;;9.38;5.03;;;16.30;39.60;;;;;;5004895;28;20054;-39
2023/04/27 12:12:43;;;;;;;10.18;5.03;;;16.40;39.80;;;;;;5002322;28;20054;-39
2023/04/27 12:15:11;;;;;;;14.30;5.50;;;16.40;38.80;;;;;;5003437;28;20050;-38
2023/04/27 12:17:38;;;;;;;12.82;6.15;;;16.40;37.80;;;;;;5001793;28;20429;-38
2023/04/27 12:20:07;;;;;;;7.97;4.72;;;16.50;37.90;;;;;;5002400;28;20517;-41
2023/04/27 12:22:34;;;;;;;7.97;4.35;;;16.50;38.40;;;;;;5002262;28;20054;-40
2023/04/27 12:25:01;;;;;;;11.27;5.57;;;16.50;39.20;;;;;;5001133;28;20042;-38
2023/04/27 12:27:31;;;;;;;8.90;4.18;;;16.50;38.40;;;;;;5004194;28;20050;-38
2023/04/27 12:29:59;;;;;;;9.75;3.75;;;16.60;38.90;;;;;;5002787;28;20054;-42
2023/04/27 12:32:26;;;;;;;8.38;4.70;;;16.60;39.10;;;;;;4998068;28;20050;-42
2023/04/27 12:34:54;;;;;;;14.75;5.50;;;16.60;39.10;;;;;;4998419;28;20050;-38
2023/04/27 12:37:21;;;;;;;9.80;4.72;;;16.70;39.10;;;;;;5000058;28;20065;-38
2023/04/27 12:39:48;;;;;;;9.43;4.18;;;16.70;39.10;;;;;;4993927;28;21051;-40
2023/04/27 12:42:18;;;;;;;9.82;5.00;;;16.70;38.90;;;;;;4999224;28;20062;-40
2023/04/27 12:44:46;;;;;;;12.23;4.53;;;16.70;38.40;;;;;;4991370;28;20046;-41
2023/04/27 12:47:14;;;;;;;19.77;5.90;;;16.80;38.00;;;;;;4990822;28;20053;-43
2023/04/27 12:49:41;;;;;;;7.70;4.05;;;16.80;36.40;;;;;;4990582;28;20049;-40
2023/04/27 12:52:09;;;;;;;9.65;4.68;;;16.80;37.00;;;;;;4992858;28;20053;-41
2023/04/27 12:54:36;;;;;;;9.70;4.45;;;16.80;37.40;;;;;;4989896;28;20077;-39